KPSK/PSK METAR and TAF weather

Enter ICAO airport designator
Station Type Date Time Source
KPSK METAR 2022/12/08 11:55 UTC NOAA

KPSK 081155Z AUTO 36004KT 10SM OVC026 10/10 A3026 RMK AO2 70013 T01040101 10133 20095


Station Type Date Time Source
KPSK Decoded METAR 2022/12/08 11:55 UTC NOAA

Dublin / New River Valley, VA, United States (KPSK) 37-08N 080-41W
Dec 08, 2022 - 06:55 AM EST / 2022.12.08 1155 UTC
Wind: from the N (360 degrees) at 5 MPH (4 KT):0
Visibility: 10 mile(s):0
Sky conditions: overcast
Temperature: 50.7 F (10.4 C)
Dew Point: 50.2 F (10.1 C)
Relative Humidity: 98%
Pressure (altimeter): 30.26 in. Hg (1024 hPa)
ob: KPSK 081155Z AUTO 36004KT 10SM OVC026 10/10 A3026 RMK AO2 70013 T01040101 10133 20095
cycle: 12

Station Type Date Time Source
KPSK TAF UTC NOAA

Error!

Example: see airport list